createdAt,value
2022-11-29T00:04:37.887Z,1.48
2022-11-29T00:09:41.021Z,1.15
2022-11-29T00:14:44.536Z,0.68
2022-11-29T00:19:47.662Z,1.10
2022-11-29T00:24:50.573Z,1.25
2022-11-29T00:29:53.474Z,1.10
2022-11-29T00:34:59.386Z,1.02
2022-11-29T00:40:02.950Z,1.23
2022-11-29T00:45:06.960Z,1.15
2022-11-29T00:50:10.133Z,1.45
2022-11-29T00:55:13.008Z,0.98
2022-11-29T01:00:16.520Z,1.10
2022-11-29T01:05:19.414Z,1.35
2022-11-29T01:10:22.507Z,1.27
2022-11-29T01:15:25.720Z,1.40
2022-11-29T01:20:28.823Z,1.38
2022-11-29T01:25:32.421Z,1.52
2022-11-29T01:30:37.521Z,1.52
2022-11-29T01:35:40.553Z,0.90
2022-11-29T01:40:43.693Z,1.33
2022-11-29T01:45:46.712Z,1.40
2022-11-29T01:50:49.806Z,1.45
2022-11-29T01:55:58.079Z,1.38
2022-11-29T02:01:01.691Z,1.25
2022-11-29T02:06:05.491Z,1.10
2022-11-29T02:11:27.063Z,1.38
2022-11-29T02:22:03.085Z,0.98
2022-11-29T02:27:43.019Z,1.58
2022-11-29T02:33:23.290Z,1.20
2022-11-29T02:38:46.786Z,1.08
2022-11-29T02:44:28.273Z,1.73
2022-11-29T02:50:01.339Z,0.93
2022-11-29T02:55:16.493Z,1.40
2022-11-29T03:00:21.236Z,1.42
2022-11-29T03:05:45.027Z,1.13
2022-11-29T03:10:50.749Z,1.77
2022-11-29T03:16:05.929Z,1.40
2022-11-29T03:21:19.739Z,1.60
2022-11-29T03:26:48.829Z,1.27
2022-11-29T03:32:01.883Z,1.48
2022-11-29T03:37:17.796Z,1.35
2022-11-29T03:42:33.231Z,1.75
2022-11-29T03:47:43.049Z,1.20
2022-11-29T03:53:08.112Z,1.08
2022-11-29T03:58:32.684Z,2.70
2022-11-29T04:04:04.492Z,1.80
2022-11-29T04:09:28.269Z,1.17
2022-11-29T04:14:49.379Z,1.30
2022-11-29T04:20:10.898Z,2.00
2022-11-29T04:25:22.858Z,1.77
2022-11-29T04:30:27.833Z,1.60
2022-11-29T04:35:54.225Z,2.03
2022-11-29T04:41:09.452Z,1.70
2022-11-29T04:46:37.032Z,1.88
2022-11-29T04:52:06.117Z,1.38
2022-11-29T04:57:17.899Z,2.03
2022-11-29T05:02:41.873Z,1.25
2022-11-29T05:08:23.002Z,1.75
2022-11-29T05:13:42.679Z,1.75
2022-11-29T05:19:02.030Z,2.38
2022-11-29T05:24:18.275Z,2.30
2022-11-29T05:29:39.576Z,2.72
2022-11-29T05:34:57.376Z,2.38
2022-11-29T05:40:44.448Z,2.20
2022-11-29T05:45:58.270Z,2.17
2022-11-29T05:51:23.187Z,1.77
2022-11-29T05:59:27.995Z,1.77
2022-11-29T06:05:04.913Z,2.10
2022-11-29T06:10:21.563Z,1.85
2022-11-29T06:15:50.662Z,2.33
2022-11-29T06:21:18.102Z,3.17
2022-11-29T06:26:40.985Z,1.95
2022-11-29T06:31:48.623Z,3.03
2022-11-29T06:37:02.750Z,1.92
2022-11-29T06:42:05.721Z,2.58
2022-11-29T06:47:39.594Z,2.40
2022-11-29T06:53:01.217Z,2.47
2022-11-29T06:58:09.631Z,2.00
2022-11-29T07:03:32.489Z,3.28
2022-11-29T07:08:35.764Z,2.85
2022-11-29T07:13:39.058Z,3.33
2022-11-29T07:18:51.203Z,3.40
2022-11-29T07:24:05.232Z,3.45
2022-11-29T07:29:27.254Z,5.60
2022-11-29T07:35:02.757Z,4.43
2022-11-29T07:40:40.662Z,5.45
2022-11-29T07:45:43.692Z,3.75
2022-11-29T07:50:47.039Z,4.30
2022-11-29T07:55:50.960Z,4.20
2022-11-29T08:00:53.961Z,3.42
2022-11-29T08:05:57.648Z,3.95
2022-11-29T08:11:00.849Z,3.60
2022-11-29T08:16:05.161Z,5.25
2022-11-29T08:21:08.485Z,4.55
2022-11-29T08:26:11.528Z,4.88
2022-11-29T08:31:14.551Z,4.80
2022-11-29T08:36:20.629Z,5.85
2022-11-29T08:41:23.701Z,3.38
2022-11-29T08:46:46.688Z,4.35
2022-11-29T08:51:53.545Z,6.68
2022-11-29T08:57:31.491Z,4.07
2022-11-29T09:02:20.767Z,5.15
2022-11-29T09:07:23.813Z,4.25
2022-11-29T09:12:26.768Z,5.13
2022-11-29T09:17:29.668Z,5.20
2022-11-29T09:22:32.608Z,4.90
2022-11-29T09:27:35.703Z,4.75
2022-11-29T09:32:38.616Z,3.95
2022-11-29T09:37:44.652Z,18.58
2022-11-29T09:43:21.167Z,8.57
2022-11-29T09:48:59.618Z,7.28
2022-11-29T09:54:20.046Z,4.30
2022-11-29T09:59:34.079Z,5.50
2022-11-29T10:04:41.270Z,5.00
2022-11-29T10:10:13.758Z,3.65
2022-11-29T10:15:24.826Z,7.40
2022-11-29T10:20:36.437Z,3.85
2022-11-29T10:26:08.200Z,3.78
2022-11-29T10:31:21.978Z,4.60
2022-11-29T10:36:46.099Z,3.92
2022-11-29T10:42:02.486Z,5.88
2022-11-29T10:47:10.658Z,4.53
2022-11-29T10:52:20.051Z,4.53
2022-11-29T10:57:23.400Z,9.88
2022-11-29T11:02:27.979Z,5.05
2022-11-29T11:07:36.286Z,5.35
2022-11-29T11:12:39.287Z,7.93
2022-11-29T11:17:56.694Z,5.55
2022-11-29T11:23:02.711Z,8.45
2022-11-29T11:28:20.780Z,7.47
2022-11-29T11:33:30.293Z,10.48
2022-11-29T11:38:35.128Z,13.27
2022-11-29T11:43:38.964Z,13.90
2022-11-29T11:48:42.690Z,26.33
2022-11-29T11:53:51.491Z,15.35
2022-11-29T11:58:57.644Z,9.85
2022-11-29T12:04:30.914Z,14.52
2022-11-29T12:09:49.360Z,16.25
2022-11-29T12:14:56.777Z,14.07
2022-11-29T12:20:10.346Z,9.25
2022-11-29T12:25:19.829Z,7.82
2022-11-29T12:30:22.867Z,7.35
2022-11-29T12:36:09.268Z,4.97
2022-11-29T12:41:29.988Z,7.53
2022-11-29T12:46:34.503Z,7.75
2022-11-29T12:52:06.285Z,6.35
2022-11-29T12:57:15.352Z,4.78
2022-11-29T13:02:30.396Z,2.47
2022-11-29T13:07:45.162Z,2.25
2022-11-29T13:13:23.948Z,2.58
2022-11-29T13:18:27.154Z,2.20
2022-11-29T13:24:00.715Z,3.13
2022-11-29T13:29:02.723Z,2.83
2022-11-29T13:34:08.774Z,3.97
2022-11-29T13:39:40.820Z,3.40
2022-11-29T13:44:57.111Z,3.28
2022-11-29T13:50:04.313Z,3.65
2022-11-29T13:55:29.339Z,4.07
2022-11-29T14:00:51.278Z,4.15
2022-11-29T14:06:05.173Z,3.30
2022-11-29T14:11:37.702Z,2.65
2022-11-29T14:16:43.544Z,2.38
2022-11-29T14:22:07.496Z,2.92
2022-11-29T14:27:13.152Z,2.40
2022-11-29T14:32:35.831Z,1.90
2022-11-29T14:38:04.281Z,2.50
2022-11-29T14:43:30.292Z,1.90
2022-11-29T14:48:34.623Z,2.33
2022-11-29T14:53:39.412Z,2.33
2022-11-29T14:58:42.500Z,2.40
2022-11-29T15:03:50.112Z,3.13
2022-11-29T15:09:04.585Z,2.30
2022-11-29T15:14:19.144Z,3.42
2022-11-29T15:19:49.217Z,2.67
2022-11-29T15:25:06.036Z,2.33
2022-11-29T15:30:39.384Z,3.25
2022-11-29T15:35:50.146Z,3.55
2022-11-29T15:40:55.535Z,2.92
2022-11-29T15:45:59.217Z,3.28
2022-11-29T15:51:17.086Z,2.67
2022-11-29T15:56:29.037Z,2.70
2022-11-29T16:01:33.288Z,2.80
2022-11-29T16:06:42.357Z,3.70
2022-11-29T16:11:46.986Z,5.13
2022-11-29T16:16:52.871Z,2.67
2022-11-29T16:22:21.511Z,2.78
2022-11-29T16:27:25.237Z,3.13
2022-11-29T16:32:29.652Z,3.58
2022-11-29T16:37:39.901Z,2.30
2022-11-29T16:42:48.975Z,2.33
2022-11-29T16:47:59.749Z,3.20
2022-11-29T16:53:35.510Z,2.92
2022-11-29T16:59:25.150Z,3.25
2022-11-29T17:04:03.272Z,3.70
2022-11-29T17:09:06.514Z,3.03
2022-11-29T17:14:10.027Z,3.05
2022-11-29T17:19:13.723Z,2.83
2022-11-29T17:24:19.689Z,2.78
2022-11-29T17:29:22.649Z,3.35
2022-11-29T17:34:25.727Z,2.97
2022-11-29T17:39:28.732Z,3.10
2022-11-29T17:44:34.210Z,3.10
2022-11-29T17:49:37.124Z,2.25
2022-11-29T17:54:40.287Z,2.85
2022-11-29T17:59:43.478Z,2.45
2022-11-29T18:04:46.665Z,2.60
2022-11-29T18:09:49.606Z,2.15
2022-11-29T18:14:52.531Z,2.22
2022-11-29T18:19:55.564Z,3.17
2022-11-29T18:25:22.683Z,2.70
2022-11-29T18:30:21.464Z,2.65
2022-11-29T18:35:24.384Z,3.10
2022-11-29T18:40:27.390Z,1.85
2022-11-29T18:45:30.910Z,2.00
2022-11-29T18:50:33.935Z,2.67
2022-11-29T18:55:37.465Z,2.03
2022-11-29T19:00:41.165Z,2.35
2022-11-29T19:05:52.913Z,2.10
2022-11-29T19:10:55.982Z,1.55
2022-11-29T19:15:58.968Z,1.88
2022-11-29T19:21:11.705Z,1.80
2022-11-29T19:26:15.878Z,1.65
2022-11-29T19:31:20.929Z,1.83
2022-11-29T19:36:27.291Z,1.58
2022-11-29T19:41:35.196Z,2.20
2022-11-29T19:46:41.525Z,1.77
2022-11-29T19:51:44.541Z,2.20
2022-11-29T19:56:47.602Z,2.13
2022-11-29T20:01:50.756Z,2.33
2022-11-29T20:06:54.943Z,2.20
2022-11-29T20:11:57.828Z,2.10
2022-11-29T20:17:00.710Z,2.65
2022-11-29T20:22:03.761Z,3.00
2022-11-29T20:27:07.242Z,2.17
2022-11-29T20:32:10.164Z,2.50
2022-11-29T20:37:22.104Z,2.00
2022-11-29T20:42:52.565Z,2.20
2022-11-29T20:48:13.607Z,1.80
2022-11-29T20:53:36.585Z,1.90
2022-11-29T20:58:40.266Z,1.60
2022-11-29T21:03:43.408Z,1.73
2022-11-29T21:08:46.654Z,1.80
2022-11-29T21:13:49.915Z,1.67
2022-11-29T21:18:58.584Z,1.83
2022-11-29T21:24:05.715Z,1.58
2022-11-29T21:29:20.135Z,1.92
2022-11-29T21:34:23.032Z,1.80
2022-11-29T21:39:34.325Z,1.67
2022-11-29T21:44:37.248Z,1.70
2022-11-29T21:49:40.467Z,1.40
2022-11-29T21:54:43.819Z,1.38
2022-11-29T21:59:46.947Z,1.52
2022-11-29T22:04:50.123Z,1.55
2022-11-29T22:09:53.101Z,0.85
2022-11-29T22:14:55.987Z,1.38
2022-11-29T22:19:58.902Z,1.42
2022-11-29T22:25:01.892Z,1.67
2022-11-29T22:30:07.096Z,1.17
2022-11-29T22:35:10.177Z,1.27
2022-11-29T22:40:13.396Z,1.55
2022-11-29T22:45:16.349Z,1.55
2022-11-29T22:50:19.369Z,0.95
2022-11-29T22:55:22.302Z,1.33
2022-11-29T23:00:25.519Z,1.42
2022-11-29T23:05:32.231Z,1.50
2022-11-29T23:10:35.583Z,1.48
2022-11-29T23:15:38.705Z,1.88
2022-11-29T23:20:41.777Z,1.27
2022-11-29T23:25:49.728Z,1.35
2022-11-29T23:30:54.516Z,1.52
2022-11-29T23:36:06.754Z,1.65
2022-11-29T23:41:10.215Z,1.40
2022-11-29T23:46:20.636Z,1.60
2022-11-29T23:51:23.684Z,1.48
2022-11-29T23:56:26.820Z,1.38
